Royal Clipper — 9HA2796 — position and weather

sailwx.info

Track history (hours):
 
Tides and Currents Weather Stations Pressure Air Temp Water Temp Dewpoint Dewpoint Depression Visibility Wind Speed Wind Dir Waves Ship Positions

Royal Clipper

Last reported at 2020-Aug-06 06:00 UTC. Time now 2020-Aug-07 09:50 UTC.
Position N 36°39' W 009°22'.

Length 137 m; draft 6.2 m.

Type: Ship. MMSI: 215813000.

Date/timePositionNaut miles runAvg speedWind from/ knotsBaromVisibWave heightAir tempDewpointWater temp
2020-Aug-06 06:00N 36°39' W 009°22'4 8.0
2020-Aug-06 05:30N 36°42' W 009°26'8 7.8
2020-Aug-06 04:30N 36°48' W 009°32'4 7.7
2020-Aug-06 04:00N 36°52' W 009°33'15 7.6
2020-Aug-06 01:58N 37°07' W 009°31'5 8.1
2020-Aug-06 01:21N 37°12' W 009°29'21 7.4
2020-Aug-05 22:30N 37°32' W 009°20'18 7.4
2020-Aug-05 20:00N 37°50' W 009°20'4 7.4
2020-Aug-05 19:30N 37°54' W 009°20'15 7.7
2020-Aug-05 17:30N 38°09' W 009°22'28 8.1
2020-Aug-05 14:00N 38°38' W 009°25'3 3.1
2020-Aug-05 13:00N 38°40' W 009°24'0 0.0
2020-Aug-05 12:27N 38°40' W 009°24'4 1.4
2020-Aug-05 09:30N 38°36' W 009°25'15 5.0
2020-Aug-05 06:29N 38°43' W 009°07'0 0.0
2020-Aug-05 04:28N 38°43' W 009°07'0 0.0
2020-Aug-05 00:28N 38°43' W 009°07'0 0.0
2020-Aug-04 22:28N 38°43' W 009°07'0 0.0
2020-Aug-04 20:58N 38°43' W 009°07'0 0.0
2020-Aug-04 19:58N 38°43' W 009°07'0 0.0
2020-Aug-04 16:58N 38°43' W 009°07'0 0.0
2020-Aug-04 10:58N 38°43' W 009°07'0 0.0
2020-Aug-04 09:28N 38°43' W 009°07'0 0.0
2020-Aug-04 08:58N 38°43' W 009°07'0 0.0
2020-Aug-04 08:28N 38°43' W 009°07'0 0.0
2020-Aug-04 04:49N 38°43' W 009°07'0 0.0
2020-Aug-04 03:58N 38°43' W 009°07'0 0.0
2020-Aug-04 02:52N 38°43' W 009°07'0 0.0
2020-Aug-03 22:28N 38°43' W 009°07'0 0.0
2020-Aug-03 17:28N 38°43' W 009°07'0 0.0
2020-Aug-03 16:28N 38°43' W 009°07'0 0.0
2020-Aug-03 15:28N 38°43' W 009°07'0 0.0
2020-Aug-03 12:58N 38°43' W 009°07'0 0.0
2020-Aug-03 10:58N 38°43' W 009°07'0 0.0
2020-Aug-03 09:58N 38°43' W 009°07'0 0.0
2020-Aug-03 09:28N 38°43' W 009°07'0 0.0
2020-Aug-03 08:58N 38°43' W 009°07'0 0.0
2020-Aug-03 06:58N 38°43' W 009°07'0 0.0
2020-Aug-03 05:28N 38°43' W 009°07'0 0.0
2020-Aug-03 04:28N 38°43' W 009°07'0 0.0
2020-Aug-03 03:28N 38°43' W 009°07'0 0.0
2020-Aug-02 23:58N 38°43' W 009°07'0 0.0
2020-Aug-02 17:28N 38°43' W 009°07'0 0.0
2020-Aug-02 16:28N 38°43' W 009°07'0 0.0
2020-Aug-02 13:28N 38°43' W 009°07'0 0.0
2020-Aug-02 12:58N 38°43' W 009°07'0 0.0
2020-Aug-02 12:28N 38°43' W 009°07'0 0.0
2020-Aug-02 10:28N 38°43' W 009°07'0 0.0
2020-Aug-02 09:58N 38°43' W 009°07'0 0.0
2020-Aug-02 06:28N 38°43' W 009°07'0 0.0
2020-Aug-02 04:58N 38°43' W 009°07'0 0.0
2020-Aug-02 04:28N 38°43' W 009°07'0 0.0
2020-Aug-02 03:58N 38°43' W 009°07'0 0.0
2020-Aug-02 02:58N 38°43' W 009°07'0 0.0
2020-Aug-02 01:58N 38°43' W 009°07'0 0.0
2020-Aug-02 00:58N 38°43' W 009°07'0 0.0
2020-Aug-01 22:28N 38°43' W 009°07'0 0.0
2020-Aug-01 15:58N 38°43' W 009°07'0 0.0
2020-Aug-01 13:55N 38°43' W 009°07'0 0.0
2020-Aug-01 11:28N 38°43' W 009°07'0 0.0
2020-Aug-01 09:28N 38°43' W 009°07'0 0.0
2020-Aug-01 05:28N 38°43' W 009°07'0 0.0
2020-Aug-01 02:58N 38°43' W 009°07'0 0.0
2020-Aug-01 02:28N 38°43' W 009°07'0 0.0
2020-Aug-01 00:28N 38°43' W 009°07'0 0.0
2020-Jul-31 23:58N 38°43' W 009°07'0 0.0
2020-Jul-31 21:28N 38°43' W 009°07'0 0.0
2020-Jul-31 17:58N 38°43' W 009°07'0 0.0
2020-Jul-31 15:28N 38°43' W 009°07'0 0.0
2020-Jul-31 11:58N 38°43' W 009°07'0 0.0
2020-Jul-31 09:58N 38°43' W 009°07'0 0.0
2020-Jul-31 06:28N 38°43' W 009°07'0 0.0
2020-Jul-31 05:58N 38°43' W 009°07'0 0.0
2020-Jul-31 04:58N 38°43' W 009°07'0 0.0
2020-Jul-31 03:58N 38°43' W 009°07'0 0.0
2020-Jul-31 00:55N 38°43' W 009°07'0 0.0
2020-Jul-31 00:28N 38°43' W 009°07'0 0.0
2020-Jul-30 22:28N 38°43' W 009°07'0 0.0
2020-Jul-30 21:28N 38°43' W 009°07'0 0.0
2020-Jul-30 20:28N 38°43' W 009°07'0 0.0
2020-Jul-30 19:28N 38°43' W 009°07'0 0.0
2020-Jul-30 13:28N 38°43' W 009°07'0 0.0
2020-Jul-30 10:28N 38°43' W 009°07'0 0.0
2020-Jul-30 08:58N 38°43' W 009°07'0 0.0
2020-Jul-30 08:25N 38°43' W 009°07'0 0.0
2020-Jul-30 05:58N 38°43' W 009°07'0 0.0
2020-Jul-30 03:58N 38°43' W 009°07'0 0.0
2020-Jul-29 20:58N 38°43' W 009°07'0 0.0
2020-Jul-29 20:28N 38°43' W 009°07'0 0.0
2020-Jul-29 19:28N 38°43' W 009°07'0 0.0
2020-Jul-29 16:58N 38°43' W 009°07'0 0.0
2020-Jul-29 16:28N 38°43' W 009°07'0 0.0
2020-Jul-29 15:28N 38°43' W 009°07'0 0.0
2020-Jul-29 14:28N 38°43' W 009°07'0 0.0
2020-Jul-29 09:28N 38°43' W 009°07'0 0.0
2020-Jul-29 04:58N 38°43' W 009°07'0 0.0
2020-Jul-29 02:58N 38°43' W 009°07'0 0.0
2020-Jul-29 00:58N 38°43' W 009°07'0 0.0
2020-Jul-28 23:25N 38°43' W 009°07'0 0.0
2020-Jul-28 19:25N 38°43' W 009°07'0 0.0
2020-Jul-28 16:58N 38°43' W 009°07'0 0.0
2020-Jul-28 14:58N 38°43' W 009°07'0 0.0
2020-Jul-28 12:58N 38°43' W 009°07'0 0.0
2020-Jul-28 11:28N 38°43' W 009°07'0 0.0
2020-Jul-28 10:55N 38°43' W 009°07'0 0.0
2020-Jul-28 10:28N 38°43' W 009°07'0 0.0
2020-Jul-28 09:25N 38°43' W 009°07'0 0.0
2020-Jul-28 06:28N 38°43' W 009°07'0 0.0
2020-Jul-28 05:28N 38°43' W 009°07'0 0.0
2020-Jul-28 01:28N 38°43' W 009°07'0 0.0
2020-Jul-27 22:58N 38°43' W 009°07'0 0.0
2020-Jul-27 18:57N 38°43' W 009°07'0 0.0
2020-Jul-27 17:27N 38°43' W 009°07'0 0.0
2020-Jul-27 16:58N 38°43' W 009°07'0 0.0
2020-Jul-27 16:28N 38°43' W 009°07'0 0.0
2020-Jul-27 15:58N 38°43' W 009°07'0 0.0
2020-Jul-27 15:25N 38°43' W 009°07'0 0.0
2020-Jul-27 14:58N 38°43' W 009°07'0 0.0
2020-Jul-27 14:28N 38°43' W 009°07'0 0.0
2020-Jul-27 11:58N 38°43' W 009°07'0 0.0
2020-Jul-27 09:58N 38°43' W 009°07'0 0.0
2020-Jul-27 09:28N 38°43' W 009°07'0 0.0
2020-Jul-27 08:01N 38°43' W 009°07'0 0.0
2020-Jul-27 06:30N 38°43' W 009°07'  
Track history (hours):
 
Tides and Currents Weather Stations Pressure Air Temp Water Temp Dewpoint Dewpoint Depression Visibility Wind Speed Wind Dir Waves Ship Positions

Royal Clipper

Last reported at 2020-Aug-06 06:00 UTC. Time now 2020-Aug-07 09:50 UTC.
Position N 36°39' W 009°22'.

Length 137 m; draft 6.2 m.

Type: Ship. MMSI: 215813000.

Date/timePositionNaut miles runAvg speedWind from/ knotsBaromVisibWave heightAir tempDewpointWater temp
2020-Aug-06 06:00N 36°39' W 009°22'4 8.0
2020-Aug-06 05:30N 36°42' W 009°26'8 7.8
2020-Aug-06 04:30N 36°48' W 009°32'4 7.7
2020-Aug-06 04:00N 36°52' W 009°33'15 7.6
2020-Aug-06 01:58N 37°07' W 009°31'5 8.1
2020-Aug-06 01:21N 37°12' W 009°29'21 7.4
2020-Aug-05 22:30N 37°32' W 009°20'18 7.4
2020-Aug-05 20:00N 37°50' W 009°20'4 7.4
2020-Aug-05 19:30N 37°54' W 009°20'15 7.7
2020-Aug-05 17:30N 38°09' W 009°22'28 8.1
2020-Aug-05 14:00N 38°38' W 009°25'3 3.1
2020-Aug-05 13:00N 38°40' W 009°24'0 0.0
2020-Aug-05 12:27N 38°40' W 009°24'4 1.4
2020-Aug-05 09:30N 38°36' W 009°25'15 5.0
2020-Aug-05 06:29N 38°43' W 009°07'0 0.0
2020-Aug-05 04:28N 38°43' W 009°07'0 0.0
2020-Aug-05 00:28N 38°43' W 009°07'0 0.0
2020-Aug-04 22:28N 38°43' W 009°07'0 0.0
2020-Aug-04 20:58N 38°43' W 009°07'0 0.0
2020-Aug-04 19:58N 38°43' W 009°07'0 0.0
2020-Aug-04 16:58N 38°43' W 009°07'0 0.0
2020-Aug-04 10:58N 38°43' W 009°07'0 0.0
2020-Aug-04 09:28N 38°43' W 009°07'0 0.0
2020-Aug-04 08:58N 38°43' W 009°07'0 0.0
2020-Aug-04 08:28N 38°43' W 009°07'0 0.0
2020-Aug-04 04:49N 38°43' W 009°07'0 0.0
2020-Aug-04 03:58N 38°43' W 009°07'0 0.0
2020-Aug-04 02:52N 38°43' W 009°07'0 0.0
2020-Aug-03 22:28N 38°43' W 009°07'0 0.0
2020-Aug-03 17:28N 38°43' W 009°07'0 0.0
2020-Aug-03 16:28N 38°43' W 009°07'0 0.0
2020-Aug-03 15:28N 38°43' W 009°07'0 0.0
2020-Aug-03 12:58N 38°43' W 009°07'0 0.0
2020-Aug-03 10:58N 38°43' W 009°07'0 0.0
2020-Aug-03 09:58N 38°43' W 009°07'0 0.0
2020-Aug-03 09:28N 38°43' W 009°07'0 0.0
2020-Aug-03 08:58N 38°43' W 009°07'0 0.0
2020-Aug-03 06:58N 38°43' W 009°07'0 0.0
2020-Aug-03 05:28N 38°43' W 009°07'0 0.0
2020-Aug-03 04:28N 38°43' W 009°07'0 0.0
2020-Aug-03 03:28N 38°43' W 009°07'0 0.0
2020-Aug-02 23:58N 38°43' W 009°07'0 0.0
2020-Aug-02 17:28N 38°43' W 009°07'0 0.0
2020-Aug-02 16:28N 38°43' W 009°07'0 0.0
2020-Aug-02 13:28N 38°43' W 009°07'0 0.0
2020-Aug-02 12:58N 38°43' W 009°07'0 0.0
2020-Aug-02 12:28N 38°43' W 009°07'0 0.0
2020-Aug-02 10:28N 38°43' W 009°07'0 0.0
2020-Aug-02 09:58N 38°43' W 009°07'0 0.0
2020-Aug-02 06:28N 38°43' W 009°07'0 0.0
2020-Aug-02 04:58N 38°43' W 009°07'0 0.0
2020-Aug-02 04:28N 38°43' W 009°07'0 0.0
2020-Aug-02 03:58N 38°43' W 009°07'0 0.0
2020-Aug-02 02:58N 38°43' W 009°07'0 0.0
2020-Aug-02 01:58N 38°43' W 009°07'0 0.0
2020-Aug-02 00:58N 38°43' W 009°07'0 0.0
2020-Aug-01 22:28N 38°43' W 009°07'0 0.0
2020-Aug-01 15:58N 38°43' W 009°07'0 0.0
2020-Aug-01 13:55N 38°43' W 009°07'0 0.0
2020-Aug-01 11:28N 38°43' W 009°07'0 0.0
2020-Aug-01 09:28N 38°43' W 009°07'0 0.0
2020-Aug-01 05:28N 38°43' W 009°07'0 0.0
2020-Aug-01 02:58N 38°43' W 009°07'0 0.0
2020-Aug-01 02:28N 38°43' W 009°07'0 0.0
2020-Aug-01 00:28N 38°43' W 009°07'0 0.0
2020-Jul-31 23:58N 38°43' W 009°07'0 0.0
2020-Jul-31 21:28N 38°43' W 009°07'0 0.0
2020-Jul-31 17:58N 38°43' W 009°07'0 0.0
2020-Jul-31 15:28N 38°43' W 009°07'0 0.0
2020-Jul-31 11:58N 38°43' W 009°07'0 0.0
2020-Jul-31 09:58N 38°43' W 009°07'0 0.0
2020-Jul-31 06:28N 38°43' W 009°07'0 0.0
2020-Jul-31 05:58N 38°43' W 009°07'0 0.0
2020-Jul-31 04:58N 38°43' W 009°07'0 0.0
2020-Jul-31 03:58N 38°43' W 009°07'0 0.0
2020-Jul-31 00:55N 38°43' W 009°07'0 0.0
2020-Jul-31 00:28N 38°43' W 009°07'0 0.0
2020-Jul-30 22:28N 38°43' W 009°07'0 0.0
2020-Jul-30 21:28N 38°43' W 009°07'0 0.0
2020-Jul-30 20:28N 38°43' W 009°07'0 0.0
2020-Jul-30 19:28N 38°43' W 009°07'0 0.0
2020-Jul-30 13:28N 38°43' W 009°07'0 0.0
2020-Jul-30 10:28N 38°43' W 009°07'0 0.0
2020-Jul-30 08:58N 38°43' W 009°07'0 0.0
2020-Jul-30 08:25N 38°43' W 009°07'0 0.0
2020-Jul-30 05:58N 38°43' W 009°07'0 0.0
2020-Jul-30 03:58N 38°43' W 009°07'0 0.0
2020-Jul-29 20:58N 38°43' W 009°07'0 0.0
2020-Jul-29 20:28N 38°43' W 009°07'0 0.0
2020-Jul-29 19:28N 38°43' W 009°07'0 0.0
2020-Jul-29 16:58N 38°43' W 009°07'0 0.0
2020-Jul-29 16:28N 38°43' W 009°07'0 0.0
2020-Jul-29 15:28N 38°43' W 009°07'0 0.0
2020-Jul-29 14:28N 38°43' W 009°07'0 0.0
2020-Jul-29 09:28N 38°43' W 009°07'0 0.0
2020-Jul-29 04:58N 38°43' W 009°07'0 0.0
2020-Jul-29 02:58N 38°43' W 009°07'0 0.0
2020-Jul-29 00:58N 38°43' W 009°07'0 0.0
2020-Jul-28 23:25N 38°43' W 009°07'0 0.0
2020-Jul-28 19:25N 38°43' W 009°07'0 0.0
2020-Jul-28 16:58N 38°43' W 009°07'0 0.0
2020-Jul-28 14:58N 38°43' W 009°07'0 0.0
2020-Jul-28 12:58N 38°43' W 009°07'0 0.0
2020-Jul-28 11:28N 38°43' W 009°07'0 0.0
2020-Jul-28 10:55N 38°43' W 009°07'0 0.0
2020-Jul-28 10:28N 38°43' W 009°07'0 0.0
2020-Jul-28 09:25N 38°43' W 009°07'0 0.0
2020-Jul-28 06:28N 38°43' W 009°07'0 0.0
2020-Jul-28 05:28N 38°43' W 009°07'0 0.0
2020-Jul-28 01:28N 38°43' W 009°07'0 0.0
2020-Jul-27 22:58N 38°43' W 009°07'0 0.0
2020-Jul-27 18:57N 38°43' W 009°07'0 0.0
2020-Jul-27 17:27N 38°43' W 009°07'0 0.0
2020-Jul-27 16:58N 38°43' W 009°07'0 0.0
2020-Jul-27 16:28N 38°43' W 009°07'0 0.0
2020-Jul-27 15:58N 38°43' W 009°07'0 0.0
2020-Jul-27 15:25N 38°43' W 009°07'0 0.0
2020-Jul-27 14:58N 38°43' W 009°07'0 0.0
2020-Jul-27 14:28N 38°43' W 009°07'0 0.0
2020-Jul-27 11:58N 38°43' W 009°07'0 0.0
2020-Jul-27 09:58N 38°43' W 009°07'0 0.0
2020-Jul-27 09:28N 38°43' W 009°07'0 0.0
2020-Jul-27 08:01N 38°43' W 009°07'0 0.0
2020-Jul-27 06:30N 38°43' W 009°07'  

Dump ship's entire track history